| time (UTC) | temp F | wind direction | speed knots | gust knots | rain 1hr in | rain 24hr in | rain mn in | humidity % | barometer mb |
| 20260507112607 | 50 | 305 | 0.9 | 2.6 | 0.01 | 0.55 | 0.55 | 92 | 1013.5 |
| 20260507111607 | 49 | 300 | 0.9 | 3.5 | 0.01 | 0.55 | 0.55 | 94 | 1013.3 |
| 20260507110607 | 48 | 332 | 0.9 | 1.7 | 0.01 | 0.55 | 0.55 | 94 | 1013.3 |
| 20260507105607 | 48 | 291 | 0.9 | 5.2 | 0.01 | 0.55 | 0.55 | 94 | 1013.4 |
| 20260507104607 | 49 | 296 | 1.7 | 5.2 | 0.00 | 0.54 | 0.54 | 91 | 1013.3 |
| 20260507103607 | 49 | 249 | 0.9 | 5.2 | 0.00 | 0.54 | 0.54 | 91 | 1013.1 |
| 20260507102607 | 49 | 292 | 0.9 | 5.2 | 0.00 | 0.54 | 0.54 | 93 | 1013.2 |
| 20260507101607 | 48 | 297 | 0.9 | 2.6 | 0.00 | 0.54 | 0.54 | 94 | 1013.0 |
| 20260507100607 | 48 | 299 | 0.9 | 5.2 | 0.00 | 0.54 | 0.54 | 93 | 1012.9 |
| 20260507095607 | 49 | 313 | 1.7 | 5.2 | 0.00 | 0.54 | 0.54 | 92 | 1012.7 |
| 20260507094607 | 49 | 315 | 0.9 | 2.6 | 0.00 | 0.54 | 0.54 | 93 | 1012.7 |
| 20260507093607 | 49 | 285 | 0.9 | 1.7 | 0.00 | 0.54 | 0.54 | 93 | 1012.6 |
| 20260507092607 | 48 | 294 | 0.0 | 3.5 | 0.00 | 0.54 | 0.54 | 94 | 1012.5 |
| 20260507091607 | 48 | 341 | 0.9 | 3.5 | 0.00 | 0.54 | 0.54 | 94 | 1012.3 |
| 20260507090607 | 49 | 306 | 0.0 | 3.5 | 0.00 | 0.54 | 0.54 | 94 | 1012.2 |
| 20260507085607 | 49 | 279 | 0.9 | 3.5 | 0.00 | 0.54 | 0.54 | 94 | 1012.1 |
| 20260507084607 | 49 | 286 | 0.9 | 2.6 | 0.00 | 0.54 | 0.54 | 96 | 1011.9 |
| 20260507083607 | 49 | 305 | 0.9 | 2.6 | 0.00 | 0.54 | 0.54 | 96 | 1011.9 |
| 20260507082607 | 49 | 292 | 0.9 | 2.6 | 0.00 | 0.54 | 0.54 | 96 | 1011.8 |
| 20260507081607 | 49 | 307 | 0.9 | 3.5 | 0.00 | 0.54 | 0.54 | 96 | 1011.7 |
| 20260507080607 | 49 | 305 | 0.9 | 5.2 | 0.00 | 0.54 | 0.54 | 97 | 1011.5 |
| 20260507075607 | 48 | 316 | 1.7 | 3.5 | 0.01 | 0.54 | 0.54 | 98 | 1011.4 |
| 20260507074607 | 48 | 305 | 0.0 | 2.6 | 0.01 | 0.54 | 0.54 | 98 | 1011.2 |
| 20260507073607 | 48 | 303 | 0.0 | 3.5 | 0.02 | 0.54 | 0.54 | 98 | 1011.2 |
| 20260507072607 | 48 | 299 | 0.0 | 3.5 | 0.02 | 0.54 | 0.54 | 98 | 1011.0 |
| 20260507071607 | 47 | 293 | 0.9 | 2.6 | 0.02 | 0.54 | 0.54 | 98 | 1011.0 |
| 20260507070607 | 48 | 282 | 0.9 | 5.2 | 0.02 | 0.54 | 0.54 | 98 | 1010.9 |
| 20260507065607 | 47 | 285 | 0.9 | 1.7 | 0.02 | 0.53 | 0.53 | 98 | 1010.9 |
| 20260507064607 | 47 | 290 | 0.9 | 2.6 | 0.02 | 0.53 | 0.53 | 98 | 1010.8 |
| 20260507063607 | 47 | 284 | 0.0 | 2.6 | 0.01 | 0.52 | 0.52 | 98 | 1010.7 |
| 20260507062607 | 47 | 283 | 0.9 | 2.6 | 0.01 | 0.52 | 0.52 | 98 | 1010.6 |
| 20260507061607 | 47 | 285 | 0.0 | 3.5 | 0.01 | 0.52 | 0.52 | 98 | 1010.5 |
| 20260507060607 | 48 | 307 | 0.9 | 2.6 | 0.01 | 0.52 | 0.52 | 98 | 1010.3 |
| 20260507055607 | 48 | 272 | 0.9 | 2.6 | 0.01 | 0.51 | 0.51 | 98 | 1010.1 |
| 20260507054607 | 48 | 283 | 0.9 | 2.6 | 0.01 | 0.51 | 0.51 | 98 | 1010.0 |
| 20260507053607 | 48 | 283 | 0.9 | 3.5 | 0.01 | 0.51 | 0.51 | 98 | 1009.9 |
| 20260507052607 | 48 | 298 | 0.9 | 2.6 | 0.01 | 0.51 | 0.51 | 98 | 1009.8 |
| 20260507051607 | 48 | 282 | 0.9 | 2.6 | 0.01 | 0.51 | 0.51 | 98 | 1009.7 |
| 20260507050607 | 48 | 306 | 0.9 | 2.6 | 0.01 | 0.51 | 0.51 | 98 | 1009.7 |
| 20260507045607 | 48 | 313 | 0.0 | 1.7 | 0.00 | 0.50 | 0.50 | 98 | 1009.6 |
| 20260507044607 | 48 | 282 | 0.0 | 2.6 | 0.00 | 0.50 | 0.50 | 98 | 1009.4 |
| 20260507043607 | 48 | 305 | 0.9 | 2.6 | 0.00 | 0.50 | 0.50 | 98 | 1009.2 |
| 20260507042607 | 48 | 292 | 0.9 | 5.2 | 0.00 | 0.50 | 0.50 | 98 | 1009.1 |
| 20260507041607 | 49 | 278 | 0.9 | 3.5 | 0.01 | 0.50 | 0.50 | 98 | 1009.0 |
| 20260507040607 | 49 | 274 | 0.9 | 1.7 | 0.01 | 0.50 | 0.50 | 98 | 1008.9 |
| 20260507035607 | 49 | 260 | 0.9 | 1.7 | 0.01 | 0.50 | 0.50 | 98 | 1008.7 |
| 20260507034607 | 49 | 273 | 0.0 | 1.7 | 0.01 | 0.50 | 0.50 | 98 | 1008.7 |
| 20260507033607 | 49 | 278 | 0.9 | 0.9 | 0.02 | 0.50 | 0.50 | 98 | 1008.6 |
| 20260507032607 | 49 | 298 | 0.9 | 3.5 | 0.03 | 0.50 | 0.50 | 98 | 1008.6 |
| 20260507031607 | 48 | 285 | 0.9 | 2.6 | 0.05 | 0.49 | 0.49 | 98 | 1008.4 |
| 20260507030607 | 48 | 292 | 0.9 | 2.6 | 0.08 | 0.49 | 0.49 | 98 | 1008.3 |
| 20260507025607 | 48 | 321 | 0.9 | 3.5 | 0.10 | 0.49 | 0.49 | 98 | 1008.4 |
| 20260507024607 | 48 | 293 | 0.9 | 2.6 | 0.11 | 0.49 | 0.49 | 98 | 1008.3 |
| 20260507023607 | 48 | 303 | 1.7 | 3.5 | 0.12 | 0.48 | 0.48 | 98 | 1008.3 |
| 20260507022607 | 49 | 295 | 1.7 | 2.6 | 0.13 | 0.47 | 0.47 | 98 | 1008.4 |
| 20260507021607 | 50 | 276 | 0.9 | 1.7 | 0.13 | 0.44 | 0.44 | 98 | 1008.3 |
| 20260507020607 | 50 | 297 | 0.9 | 2.6 | 0.15 | 0.41 | 0.41 | 98 | 1008.3 |
| 20260507015607 | 49 | 272 | 0.9 | 3.5 | 0.15 | 0.39 | 0.39 | 98 | 1008.3 |
| 20260507014607 | 49 | 273 | 1.7 | 3.5 | 0.14 | 0.38 | 0.38 | 98 | 1008.2 |
| 20260507013607 | 49 | 268 | 0.9 | 2.6 | 0.14 | 0.36 | 0.36 | 98 | 1008.1 |
| 20260507012607 | 49 | 282 | 0.9 | 2.6 | 0.14 | 0.34 | 0.34 | 97 | 1008.0 |
| 20260507011607 | 49 | 247 | 1.7 | 6.1 | 0.17 | 0.35 | 0.31 | 97 | 1007.8 |
| 20260507010607 | 50 | 283 | 1.7 | 5.2 | 0.16 | 0.30 | 0.26 | 97 | 1007.9 |
| 20260507005607 | 50 | 264 | 1.7 | 5.2 | 0.16 | 0.28 | 0.24 | 97 | 1007.9 |
| 20260507004607 | 50 | 268 | 1.7 | 3.5 | 0.18 | 0.28 | 0.24 | 97 | 1007.8 |
| 20260507003607 | 50 | 263 | 1.7 | 7.8 | 0.17 | 0.26 | 0.22 | 97 | 1007.9 |
| 20260507002607 | 51 | 237 | 1.7 | 5.2 | 0.15 | 0.24 | 0.20 | 97 | 1007.9 |
| 20260507001607 | 51 | 261 | 0.0 | 1.7 | 0.10 | 0.18 | 0.14 | 97 | 1007.9 |
| 20260507000607 | 51 | 268 | 0.9 | 3.5 | 0.06 | 0.14 | 0.10 | 97 | 1007.9 |
| 20260506235607 | 51 | 278 | 0.9 | 1.7 | 0.04 | 0.12 | 0.08 | 97 | 1007.9 |
| 20260506234607 | 51 | 267 | 1.7 | 5.2 | 0.02 | 0.10 | 0.06 | 96 | 1007.9 |
| 20260506233607 | 51 | 279 | 1.7 | 6.1 | 0.04 | 0.09 | 0.05 | 96 | 1007.8 |
| 20260506232607 | 51 | 283 | 0.9 | 5.2 | 0.05 | 0.09 | 0.05 | 96 | 1007.8 |
| 20260506231607 | 51 | 278 | 0.9 | 3.5 | 0.04 | 0.08 | 0.04 | 96 | 1007.9 |
| 20260506230607 | 51 | 251 | 0.9 | 3.5 | 0.04 | 0.08 | 0.04 | 95 | 1007.8 |
| 20260506225607 | 52 | 323 | 0.9 | 2.6 | 0.04 | 0.08 | 0.04 | 94 | 1007.9 |
| 20260506224607 | 52 | 270 | 0.9 | 2.6 | 0.04 | 0.08 | 0.04 | 93 | 1007.8 |
| 20260506223607 | 52 | 276 | 0.9 | 1.7 | 0.01 | 0.05 | 0.01 | 92 | 1007.8 |
| 20260506222607 | 52 | 281 | 0.9 | 2.6 | 0.00 | 0.04 | 0.00 | 91 | 1007.7 |
| 20260506221607 | 53 | 264 | 0.9 | 1.7 | 0.00 | 0.04 | 0.00 | 90 | 1007.7 |
| 20260506220607 | 53 | 270 | 0.9 | 1.7 | 0.00 | 0.04 | 0.00 | 90 | 1007.6 |
| 20260506215607 | 53 | 262 | 0.9 | 3.5 | 0.00 | 0.04 | 0.04 | 89 | 1007.6 |
| 20260506214607 | 53 | 279 | 0.9 | 3.5 | 0.00 | 0.04 | 0.04 | 89 | 1007.5 |
| 20260506213607 | 53 | 275 | 0.9 | 2.6 | 0.00 | 0.04 | 0.04 | 88 | 1007.4 |
| 20260506212607 | 53 | 299 | 0.9 | 2.6 | 0.00 | 0.04 | 0.04 | 88 | 1007.3 |
| 20260506211607 | 54 | 270 | 0.9 | 2.6 | 0.00 | 0.04 | 0.04 | 88 | 1007.4 |
| 20260506210607 | 54 | 272 | 0.9 | 2.6 | 0.00 | 0.04 | 0.04 | 87 | 1007.3 |
| 20260506205607 | 54 | 294 | 0.9 | 2.6 | 0.00 | 0.04 | 0.04 | 87 | 1007.2 |
| 20260506204608 | 54 | 271 | 0.9 | 5.2 | 0.00 | 0.04 | 0.04 | 87 | 1007.2 |
| 20260506203607 | 54 | 286 | 0.9 | 3.5 | 0.00 | 0.04 | 0.04 | 86 | 1007.2 |
| 20260506202607 | 55 | 283 | 0.9 | 2.6 | 0.00 | 0.04 | 0.04 | 85 | 1007.0 |
| 20260506201607 | 55 | 312 | 0.0 | 2.6 | 0.00 | 0.04 | 0.04 | 84 | 1007.0 |
| 20260506200607 | 55 | 319 | 0.9 | 1.7 | 0.00 | 0.04 | 0.04 | 83 | 1006.9 |
| 20260506195608 | 55 | 269 | 0.0 | 1.7 | 0.00 | 0.04 | 0.04 | 82 | 1006.9 |
| 20260506194608 | 55 | 273 | 0.9 | 1.7 | 0.00 | 0.04 | 0.04 | 82 | 1006.8 |
| 20260506193608 | 55 | 271 | 0.9 | 2.6 | 0.00 | 0.05 | 0.04 | 81 | 1006.8 |
| 20260506192608 | 55 | 290 | 0.0 | 0.9 | 0.00 | 0.06 | 0.04 | 80 | 1006.6 |
| 20260506191608 | 56 | 287 | 0.0 | 1.7 | 0.00 | 0.06 | 0.04 | 79 | 1006.6 |
| 20260506190608 | 56 | 289 | 0.0 | 1.7 | 0.00 | 0.06 | 0.04 | 78 | 1006.4 |
| 20260506185608 | 56 | 270 | 0.0 | 2.6 | 0.00 | 0.07 | 0.04 | 77 | 1006.3 |
| 20260506184608 | 56 | 288 | 0.9 | 2.6 | 0.00 | 0.07 | 0.04 | 76 | 1006.1 |
| 20260506183608 | 56 | 275 | 0.9 | 0.9 | 0.00 | 0.07 | 0.04 | 77 | 1005.9 |
| 20260506182608 | 57 | 271 | 0.9 | 1.7 | 0.00 | 0.07 | 0.04 | 78 | 1005.8 |
| 20260506181608 | 57 | 269 | 0.0 | 0.9 | 0.00 | 0.07 | 0.04 | 80 | 1005.7 |
| 20260506180608 | 58 | 263 | 0.0 | 0.9 | 0.00 | 0.08 | 0.04 | 78 | 1005.8 |
| 20260506175608 | 58 | 260 | 0.0 | 0.9 | 0.00 | 0.08 | 0.04 | 77 | 1005.5 |
| 20260506174608 | 59 | 0.0 | 0.9 | 0.00 | 0.08 | 0.04 | 76 | 1005.6 | |
| 20260506173608 | 59 | 252 | 0.0 | 2.6 | 0.00 | 0.08 | 0.04 | 76 | 1005.6 |
| 20260506172608 | 60 | 264 | 0.0 | 0.9 | 0.00 | 0.08 | 0.04 | 74 | 1005.5 |
| 20260506171608 | 61 | 0.0 | 0.0 | 0.00 | 0.09 | 0.04 | 74 | 1005.3 | |
| 20260506170608 | 61 | 0.0 | 0.9 | 0.00 | 0.11 | 0.04 | 74 | 1005.2 | |
| 20260506165608 | 60 | 0.0 | 0.9 | 0.00 | 0.14 | 0.04 | 74 | 1005.3 | |
| 20260506164608 | 60 | 302 | 0.0 | 1.7 | 0.00 | 0.18 | 0.04 | 73 | 1005.3 |
| 20260506163608 | 61 | 315 | 0.0 | 1.7 | 0.00 | 0.24 | 0.04 | 72 | 1005.3 |
| 20260506162608 | 61 | 237 | 0.0 | 2.6 | 0.00 | 0.28 | 0.04 | 71 | 1005.4 |
| 20260506161608 | 61 | 237 | 0.0 | 1.7 | 0.00 | 0.30 | 0.04 | 71 | 1005.4 |
| 20260506160608 | 61 | 239 | 0.0 | 1.7 | 0.00 | 0.31 | 0.04 | 69 | 1005.6 |
| 20260506155608 | 61 | 0.0 | 0.9 | 0.00 | 0.32 | 0.04 | 70 | 1005.7 | |
| 20260506154608 | 60 | 293 | 0.9 | 1.7 | 0.00 | 0.32 | 0.04 | 69 | 1005.7 |
| 20260506153608 | 61 | 266 | 0.9 | 1.7 | 0.00 | 0.32 | 0.04 | 67 | 1005.7 |
| 20260506152608 | 62 | 284 | 0.9 | 1.7 | 0.00 | 0.32 | 0.04 | 63 | 1005.8 |
| 20260506151608 | 62 | 284 | 0.0 | 0.9 | 0.00 | 0.32 | 0.04 | 62 | 1005.7 |
| 20260506150608 | 61 | 285 | 0.0 | 0.9 | 0.00 | 0.32 | 0.04 | 62 | 1005.5 |
| 20260506145608 | 61 | 252 | 1.7 | 5.2 | 0.00 | 0.32 | 0.04 | 63 | 1005.6 |
| 20260506144608 | 61 | 246 | 2.6 | 5.2 | 0.00 | 0.32 | 0.04 | 62 | 1005.5 |
| 20260506143608 | 62 | 250 | 1.7 | 5.2 | 0.00 | 0.32 | 0.04 | 60 | 1005.5 |
| 20260506142608 | 62 | 246 | 2.6 | 6.1 | 0.00 | 0.32 | 0.04 | 63 | 1005.5 |
| 20260506141608 | 64 | 234 | 3.5 | 7.0 | 0.00 | 0.32 | 0.04 | 60 | 1005.7 |
| 20260506140608 | 62 | 266 | 1.7 | 5.2 | 0.00 | 0.32 | 0.04 | 62 | 1005.7 |
| 20260506135608 | 62 | 245 | 4.3 | 7.8 | 0.00 | 0.32 | 0.04 | 61 | 1005.8 |
| 20260506134608 | 63 | 233 | 6.1 | 9.6 | 0.00 | 0.32 | 0.04 | 61 | 1005.7 |
| 20260506133608 | 62 | 239 | 4.3 | 8.7 | 0.00 | 0.32 | 0.04 | 63 | 1005.8 |
| 20260506132608 | 63 | 217 | 5.2 | 8.7 | 0.00 | 0.32 | 0.04 | 62 | 1005.7 |
| 20260506131608 | 63 | 253 | 0.9 | 2.6 | 0.00 | 0.32 | 0.04 | 61 | 1005.8 |
| 20260506130608 | 64 | 242 | 3.5 | 6.1 | 0.00 | 0.32 | 0.04 | 60 | 1005.8 |
| 20260506125608 | 62 | 241 | 4.3 | 7.8 | 0.00 | 0.32 | 0.04 | 60 | 1005.9 |
| 20260506124607 | 62 | 233 | 4.3 | 7.8 | 0.00 | 0.32 | 0.04 | 61 | 1006.0 |
| 20260506123608 | 63 | 252 | 1.7 | 6.1 | 0.00 | 0.32 | 0.04 | 60 | 1006.0 |
| 20260506122608 | 63 | 251 | 2.6 | 7.0 | 0.00 | 0.32 | 0.04 | 62 | 1006.1 |
| 20260506121608 | 62 | 265 | 0.9 | 3.5 | 0.00 | 0.32 | 0.04 | 62 | 1006.1 |
| 20260506120607 | 62 | 270 | 1.7 | 7.0 | 0.00 | 0.32 | 0.04 | 63 | 1006.1 |
| 20260506115607 | 62 | 246 | 1.7 | 6.1 | 0.00 | 0.32 | 0.04 | 66 | 1006.3 |
| 20260506114607 | 62 | 254 | 1.7 | 6.1 | 0.00 | 0.32 | 0.04 | 68 | 1006.2 |
| 20260506113608 | 64 | 244 | 2.6 | 8.7 | 0.00 | 0.32 | 0.04 | 66 | 1006.3 |